Time;durP1;ratioP1;P1;durP2;ratioP2;P2;SDS_P1;SDS_P2;PMS_P1;PMS_P2;Temp;Humidity;BMP_temperature;BMP_pressure;BME280_temperature;BME280_humidity;BME280_pressure;Samples;Min_cycle;Max_cycle;Signal;HPM_P1;HPM_P2
2023/12/22 00:02:08;;;;;;;7.70;1.75;;;5.00;99.90;;;;;;5051433;28;20254;-61
2023/12/22 00:04:34;;;;;;;5.53;0.88;;;5.00;99.90;;;;;;5051489;28;20212;-56
2023/12/22 00:06:59;;;;;;;4.82;1.25;;;5.00;99.90;;;;;;5051541;28;20171;-58
2023/12/22 00:09:25;;;;;;;2.80;0.98;;;5.00;99.90;;;;;;5051429;28;20179;-56
2023/12/22 00:11:50;;;;;;;3.30;1.40;;;5.00;99.90;;;;;;5051305;28;20588;-60
2023/12/22 00:14:16;;;;;;;4.28;1.45;;;5.10;99.90;;;;;;5051355;28;20642;-58
2023/12/22 00:16:41;;;;;;;5.80;1.73;;;5.10;99.90;;;;;;5051254;28;20692;-57
2023/12/22 00:19:07;;;;;;;7.28;1.85;;;5.10;99.90;;;;;;5051277;28;20651;-56
2023/12/22 00:21:32;;;;;;;4.20;1.33;;;5.20;99.90;;;;;;5051302;28;20198;-57
2023/12/22 00:23:58;;;;;;;4.53;1.02;;;5.20;99.90;;;;;;5051049;28;20170;-59
2023/12/22 00:26:24;;;;;;;5.47;1.88;;;5.30;99.90;;;;;;5051029;28;20182;-57
2023/12/22 00:28:49;;;;;;;8.95;1.40;;;5.30;99.90;;;;;;5051703;28;20193;-58
2023/12/22 00:31:15;;;;;;;4.32;1.23;;;5.40;99.90;;;;;;5051184;28;20166;-58
2023/12/22 00:33:40;;;;;;;7.10;1.50;;;5.40;99.90;;;;;;5051201;28;20177;-56
2023/12/22 00:36:06;;;;;;;8.13;1.63;;;5.50;99.90;;;;;;5051028;28;20241;-56
2023/12/22 00:38:32;;;;;;;11.57;2.17;;;5.40;99.90;;;;;;5051106;28;20248;-58
2023/12/22 00:40:57;;;;;;;7.30;1.50;;;5.40;99.90;;;;;;5053114;28;20169;-56
2023/12/22 00:43:23;;;;;;;6.20;1.45;;;5.40;99.90;;;;;;5055325;28;20171;-56
2023/12/22 00:45:48;;;;;;;8.23;1.55;;;5.50;99.90;;;;;;5055499;28;20557;-56
2023/12/22 00:48:15;;;;;;;10.15;1.80;;;5.50;99.90;;;;;;5055027;28;20634;-55
2023/12/22 00:50:41;;;;;;;5.07;1.45;;;5.50;99.90;;;;;;5055380;28;21110;-58
2023/12/22 00:53:06;;;;;;;5.88;1.75;;;5.50;99.90;;;;;;5054675;28;20254;-58
2023/12/22 00:55:32;;;;;;;10.52;1.95;;;5.50;99.90;;;;;;5054827;28;20767;-57
2023/12/22 00:57:57;;;;;;;5.32;1.48;;;5.50;99.90;;;;;;5055013;28;20685;-57
2023/12/22 01:00:23;;;;;;;6.35;1.50;;;5.50;99.90;;;;;;5054993;28;20561;-58
2023/12/22 01:02:48;;;;;;;10.45;2.88;;;5.50;99.90;;;;;;5055328;28;20167;-57
2023/12/22 01:05:14;;;;;;;7.80;1.77;;;5.50;99.90;;;;;;5054987;28;20200;-56
2023/12/22 01:07:40;;;;;;;7.90;1.95;;;5.60;99.90;;;;;;5054725;28;20190;-58
2023/12/22 01:10:06;;;;;;;8.93;2.10;;;5.60;99.90;;;;;;5054621;28;20163;-57
2023/12/22 01:12:31;;;;;;;10.55;1.83;;;5.60;99.90;;;;;;5054539;28;20535;-57
2023/12/22 01:14:57;;;;;;;9.23;1.75;;;5.60;99.90;;;;;;5054532;28;20174;-57
2023/12/22 01:17:23;;;;;;;11.25;1.90;;;5.60;99.90;;;;;;5054403;28;20229;-57
2023/12/22 01:19:48;;;;;;;12.98;1.58;;;5.60;99.90;;;;;;5054998;28;20167;-58
2023/12/22 01:22:14;;;;;;;7.20;1.90;;;5.60;99.90;;;;;;5054383;28;20166;-57
2023/12/22 01:24:42;;;;;;;9.27;2.42;;;5.60;99.90;;;;;;5054158;28;20252;-56
2023/12/22 01:27:09;;;;;;;6.60;1.52;;;5.50;99.90;;;;;;5054592;28;20183;-56
2023/12/22 01:29:34;;;;;;;6.78;2.97;;;5.60;99.90;;;;;;5054185;28;20167;-56
2023/12/22 01:32:00;;;;;;;10.38;2.35;;;5.60;99.90;;;;;;5054005;28;20190;-56
2023/12/22 01:34:25;;;;;;;8.50;2.15;;;5.60;99.90;;;;;;5054163;28;20166;-56
2023/12/22 01:36:51;;;;;;;6.88;2.72;;;5.60;99.90;;;;;;5054768;28;20211;-57
2023/12/22 01:39:17;;;;;;;9.77;1.73;;;5.60;99.90;;;;;;5054681;28;20174;-56
2023/12/22 01:41:42;;;;;;;9.48;2.05;;;5.60;99.90;;;;;;5054105;28;20212;-56
2023/12/22 01:44:08;;;;;;;9.73;2.17;;;5.60;99.90;;;;;;5054022;28;20173;-56
2023/12/22 01:46:35;;;;;;;10.57;2.38;;;5.60;99.90;;;;;;5054033;28;20644;-56
2023/12/22 01:49:01;;;;;;;9.43;2.00;;;5.60;99.90;;;;;;5054036;28;20231;-56
2023/12/22 01:51:31;;;;;;;4.95;1.63;;;5.60;99.90;;;;;;5053311;28;20615;-56
2023/12/22 01:53:56;;;;;;;11.55;2.15;;;5.50;99.90;;;;;;5052898;28;20739;-55
2023/12/22 01:56:23;;;;;;;11.70;2.47;;;5.50;99.90;;;;;;5053481;28;20218;-56
2023/12/22 01:58:52;;;;;;;9.68;1.83;;;5.50;99.90;;;;;;5054242;28;20652;-55
2023/12/22 02:01:18;;;;;;;7.95;2.50;;;5.50;99.90;;;;;;5054253;28;20181;-55
2023/12/22 02:03:44;;;;;;;8.77;2.08;;;5.50;99.90;;;;;;5053656;28;20197;-55
2023/12/22 02:06:10;;;;;;;13.43;2.60;;;5.40;99.90;;;;;;5053586;28;20194;-55
2023/12/22 02:08:36;;;;;;;6.93;2.05;;;5.40;99.90;;;;;;5053630;28;20163;-55
2023/12/22 02:11:02;;;;;;;10.55;2.45;;;5.40;99.90;;;;;;5053514;28;20173;-55
2023/12/22 02:13:28;;;;;;;11.15;1.77;;;5.40;99.90;;;;;;5053665;28;20175;-55
2023/12/22 02:16:06;;;;;;;7.38;2.38;;;5.40;99.90;;;;;;5053329;28;20618;-58
2023/12/22 02:18:35;;;;;;;12.40;2.75;;;5.40;99.90;;;;;;5053413;28;20177;-55
2023/12/22 02:21:00;;;;;;;12.50;2.35;;;5.40;99.90;;;;;;5053387;28;20187;-55
2023/12/22 02:23:26;;;;;;;14.25;2.08;;;5.50;99.90;;;;;;5053005;28;20267;-56
2023/12/22 02:25:57;;;;;;;9.20;2.78;;;5.70;99.90;;;;;;5053527;28;20171;-56
2023/12/22 02:28:24;;;;;;;6.57;2.10;;;5.70;99.90;;;;;;5053289;28;20194;-56
2023/12/22 02:31:12;;;;;;;11.63;2.03;;;5.80;99.90;;;;;;5053784;28;20190;-55
2023/12/22 02:33:41;;;;;;;5.70;2.28;;;5.80;99.90;;;;;;5053338;28;20535;-56
2023/12/22 02:36:09;;;;;;;9.13;2.28;;;5.80;99.90;;;;;;5053305;28;20624;-55
2023/12/22 02:38:35;;;;;;;12.88;2.83;;;5.80;99.90;;;;;;5052957;28;20183;-56
2023/12/22 02:41:02;;;;;;;7.18;2.38;;;5.80;99.90;;;;;;5052958;28;20169;-56
2023/12/22 02:43:28;;;;;;;15.30;2.88;;;5.80;99.90;;;;;;5052941;28;20175;-55
2023/12/22 02:45:54;;;;;;;16.35;3.15;;;5.80;99.90;;;;;;5052867;28;20174;-55
2023/12/22 02:48:19;;;;;;;9.55;2.13;;;5.80;99.90;;;;;;5053257;28;20220;-55
2023/12/22 02:50:45;;;;;;;15.70;3.33;;;5.80;99.90;;;;;;5052770;28;20170;-56
2023/12/22 02:53:10;;;;;;;22.08;3.13;;;5.80;99.90;;;;;;5052470;28;20167;-55
2023/12/22 02:55:36;;;;;;;11.70;3.05;;;5.80;99.90;;;;;;5052605;28;20210;-57
2023/12/22 02:58:01;;;;;;;12.68;2.45;;;5.80;99.90;;;;;;5052386;28;20214;-56
2023/12/22 03:00:27;;;;;;;13.82;2.58;;;5.80;99.90;;;;;;5052618;28;20166;-56
2023/12/22 03:02:52;;;;;;;11.65;2.63;;;5.80;99.90;;;;;;5052082;28;20227;-56
2023/12/22 03:05:18;;;;;;;9.45;2.30;;;5.90;99.90;;;;;;5052878;28;20176;-56
2023/12/22 03:07:43;;;;;;;8.50;2.40;;;6.00;99.90;;;;;;5052203;28;20164;-55
2023/12/22 03:10:09;;;;;;;21.00;4.43;;;6.00;99.90;;;;;;5052304;28;20177;-56
2023/12/22 03:12:34;;;;;;;8.02;2.13;;;6.00;99.90;;;;;;5052341;28;20174;-55
2023/12/22 03:15:00;;;;;;;9.65;2.15;;;6.00;99.90;;;;;;5052369;28;20178;-56
2023/12/22 03:17:25;;;;;;;10.18;3.05;;;6.10;99.90;;;;;;5052129;28;20213;-54
2023/12/22 03:19:51;;;;;;;14.25;2.97;;;6.10;99.90;;;;;;5052553;28;20174;-56
2023/12/22 03:22:16;;;;;;;16.40;3.00;;;6.20;99.90;;;;;;5052363;28;20171;-56
2023/12/22 03:24:43;;;;;;;19.35;3.30;;;6.20;99.90;;;;;;5052005;28;20171;-55
2023/12/22 03:27:08;;;;;;;21.45;3.45;;;6.30;99.90;;;;;;5052376;28;20249;-56
2023/12/22 03:29:34;;;;;;;14.32;3.15;;;6.40;99.90;;;;;;5052136;28;20262;-55
2023/12/22 03:31:59;;;;;;;17.17;2.75;;;6.40;99.90;;;;;;5052012;28;20174;-56
2023/12/22 03:34:25;;;;;;;9.98;2.17;;;6.50;99.90;;;;;;5052081;28;20167;-54
2023/12/22 03:36:50;;;;;;;8.65;1.92;;;6.50;99.90;;;;;;5052406;28;20198;-55
2023/12/22 03:39:16;;;;;;;11.18;2.15;;;6.30;99.90;;;;;;5052264;28;20182;-56
2023/12/22 03:41:42;;;;;;;13.70;2.55;;;6.60;99.90;;;;;;5051905;28;20167;-56
2023/12/22 03:44:07;;;;;;;7.85;2.08;;;6.60;99.90;;;;;;5051869;28;20167;-57
2023/12/22 03:46:33;;;;;;;7.85;2.20;;;6.60;99.90;;;;;;5051795;28;20167;-57
2023/12/22 03:48:58;;;;;;;11.52;1.98;;;6.60;99.90;;;;;;5052021;28;20261;-57
2023/12/22 03:51:24;;;;;;;7.50;1.50;;;6.60;99.90;;;;;;5051835;28;20163;-57
2023/12/22 03:53:49;;;;;;;5.88;1.40;;;6.60;99.90;;;;;;5051726;28;20237;-57
2023/12/22 03:56:15;;;;;;;7.45;1.92;;;6.70;99.90;;;;;;5051593;28;20171;-57
2023/12/22 03:58:40;;;;;;;10.27;2.40;;;6.60;99.90;;;;;;5051621;28;20182;-57
2023/12/22 04:01:09;;;;;;;15.23;2.05;;;6.60;99.90;;;;;;5051451;28;20283;-57
2023/12/22 04:03:34;;;;;;;5.60;1.58;;;6.50;99.90;;;;;;5051580;28;20669;-57
2023/12/22 04:06:04;;;;;;;6.63;1.88;;;6.40;99.90;;;;;;5051782;28;20174;-58
2023/12/22 04:08:29;;;;;;;6.65;1.75;;;6.30;99.90;;;;;;5051641;28;20186;-58
2023/12/22 04:10:55;;;;;;;10.70;2.35;;;6.30;99.90;;;;;;5051463;28;20167;-57
2023/12/22 04:13:21;;;;;;;20.77;2.72;;;6.20;99.90;;;;;;5051831;28;20167;-57
2023/12/22 04:15:46;;;;;;;15.20;1.95;;;6.30;99.90;;;;;;5051193;28;20216;-56
2023/12/22 04:18:12;;;;;;;9.55;2.22;;;6.20;99.90;;;;;;5051303;28;20203;-57
2023/12/22 04:20:37;;;;;;;8.88;1.70;;;6.20;99.90;;;;;;5051353;28;20166;-58
2023/12/22 04:23:03;;;;;;;10.70;2.42;;;6.20;99.90;;;;;;5051110;28;20175;-58
2023/12/22 04:25:28;;;;;;;11.75;2.78;;;6.20;99.90;;;;;;5051091;28;20170;-58
2023/12/22 04:27:54;;;;;;;8.80;1.70;;;6.20;99.90;;;;;;5051336;28;20166;-58
2023/12/22 04:30:19;;;;;;;13.00;2.50;;;6.10;99.90;;;;;;5051717;28;20171;-58
2023/12/22 04:32:45;;;;;;;15.00;3.20;;;6.10;99.90;;;;;;5051548;28;20181;-57
2023/12/22 04:35:11;;;;;;;11.68;2.70;;;6.10;99.90;;;;;;5051519;28;20212;-57
2023/12/22 04:37:36;;;;;;;5.15;1.42;;;6.10;99.90;;;;;;5051162;28;20198;-57
2023/12/22 04:40:02;;;;;;;13.65;2.13;;;6.10;99.90;;;;;;5051222;28;20225;-58
2023/12/22 04:42:28;;;;;;;11.32;2.05;;;6.20;99.90;;;;;;5051213;28;20257;-58
2023/12/22 04:44:54;;;;;;;3.20;1.55;;;6.30;99.90;;;;;;5051429;28;20171;-59
2023/12/22 04:47:20;;;;;;;13.02;2.75;;;6.30;99.90;;;;;;5051547;28;20167;-57
2023/12/22 04:49:46;;;;;;;12.00;2.50;;;6.40;99.90;;;;;;5051793;28;20536;-58
2023/12/22 04:52:12;;;;;;;10.15;2.42;;;6.40;99.90;;;;;;5050767;28;20171;-57
2023/12/22 04:54:37;;;;;;;8.57;2.60;;;6.50;99.90;;;;;;5050686;28;20225;-57
2023/12/22 04:57:03;;;;;;;12.70;3.13;;;6.50;99.90;;;;;;5050927;28;20209;-57
2023/12/22 04:59:29;;;;;;;16.02;3.28;;;6.50;99.90;;;;;;5051051;28;20163;-56
2023/12/22 05:01:55;;;;;;;12.82;2.10;;;6.60;99.90;;;;;;5051040;28;20174;-56
2023/12/22 05:04:21;;;;;;;11.60;3.28;;;6.60;99.90;;;;;;5051427;28;20688;-56
2023/12/22 05:06:47;;;;;;;13.00;3.05;;;6.60;99.90;;;;;;5051442;28;20221;-56
2023/12/22 05:09:12;;;;;;;7.18;1.92;;;6.60;99.90;;;;;;5050922;28;20176;-57
2023/12/22 05:11:38;;;;;;;19.10;3.20;;;6.70;99.90;;;;;;5050908;28;20166;-57
2023/12/22 05:14:04;;;;;;;9.75;1.85;;;6.70;99.90;;;;;;5051128;28;20178;-56
2023/12/22 05:16:31;;;;;;;11.18;2.85;;;6.70;99.90;;;;;;5050801;28;20599;-56
2023/12/22 05:18:57;;;;;;;9.57;2.65;;;6.80;99.90;;;;;;5050811;28;20197;-55
2023/12/22 05:21:23;;;;;;;7.45;3.22;;;6.90;99.90;;;;;;5051079;28;20257;-55
2023/12/22 05:23:49;;;;;;;13.25;3.03;;;7.00;99.90;;;;;;5050377;28;20210;-55
2023/12/22 05:26:19;;;;;;;11.85;2.58;;;7.00;99.90;;;;;;5051024;28;20167;-55
2023/12/22 05:28:45;;;;;;;6.88;2.20;;;7.00;99.90;;;;;;5054178;28;20789;-56
2023/12/22 05:31:10;;;;;;;8.98;2.72;;;7.10;99.90;;;;;;5054252;28;20940;-56
2023/12/22 05:33:36;;;;;;;17.45;3.08;;;7.10;99.90;;;;;;5054192;28;20171;-55
2023/12/22 05:36:02;;;;;;;11.27;3.25;;;7.20;99.90;;;;;;5053904;28;20652;-56
2023/12/22 05:38:27;;;;;;;17.23;3.78;;;7.30;99.90;;;;;;5053801;28;20544;-55
2023/12/22 05:40:53;;;;;;;6.80;2.08;;;7.30;99.90;;;;;;5054205;28;20177;-55
2023/12/22 05:43:18;;;;;;;11.63;2.45;;;7.30;99.90;;;;;;5054569;28;20173;-55
2023/12/22 05:45:44;;;;;;;11.70;2.63;;;7.30;99.90;;;;;;5053835;28;20173;-55
2023/12/22 05:48:10;;;;;;;9.63;2.38;;;7.30;99.90;;;;;;5053918;28;20237;-55
2023/12/22 05:50:35;;;;;;;13.30;2.08;;;7.40;99.90;;;;;;5054095;28;20186;-56
2023/12/22 05:53:01;;;;;;;7.63;2.17;;;7.40;99.90;;;;;;5053189;28;20186;-55
2023/12/22 05:55:26;;;;;;;14.75;2.72;;;7.40;99.90;;;;;;5053652;28;20218;-55
2023/12/22 05:57:53;;;;;;;11.38;2.45;;;7.40;99.90;;;;;;5053510;28;20701;-55
2023/12/22 06:00:19;;;;;;;16.15;2.33;;;7.30;99.90;;;;;;5054501;28;20253;-56
2023/12/22 06:02:44;;;;;;;6.60;2.03;;;7.40;99.90;;;;;;5054003;28;20199;-55
2023/12/22 06:05:10;;;;;;;12.77;3.33;;;7.40;99.90;;;;;;5053718;28;20901;-55
2023/12/22 06:07:36;;;;;;;7.88;2.20;;;7.40;99.90;;;;;;5053928;28;20171;-55
2023/12/22 06:10:02;;;;;;;23.95;3.40;;;7.40;99.90;;;;;;5052860;28;20542;-55
2023/12/22 06:12:27;;;;;;;5.03;1.52;;;7.40;99.90;;;;;;5053384;28;20251;-57
2023/12/22 06:14:53;;;;;;;15.50;2.70;;;7.40;99.90;;;;;;5053352;28;20177;-56
2023/12/22 06:17:18;;;;;;;13.98;2.80;;;7.40;99.90;;;;;;5053393;28;20680;-57
2023/12/22 06:19:44;;;;;;;21.05;2.72;;;7.40;99.90;;;;;;5052898;28;20223;-56
2023/12/22 06:22:09;;;;;;;10.57;2.33;;;7.40;99.90;;;;;;5052584;28;20179;-56
2023/12/22 06:24:36;;;;;;;6.85;2.42;;;7.40;99.90;;;;;;5052626;28;20174;-56
2023/12/22 06:27:01;;;;;;;14.27;2.83;;;7.40;99.90;;;;;;5052819;28;20250;-56
2023/12/22 06:29:27;;;;;;;14.05;2.53;;;7.30;99.90;;;;;;5052741;28;20250;-56
2023/12/22 06:31:52;;;;;;;9.77;3.00;;;7.20;99.90;;;;;;5053113;28;20642;-56
2023/12/22 06:34:18;;;;;;;9.23;2.47;;;7.30;99.90;;;;;;5053459;28;20178;-56
2023/12/22 06:36:43;;;;;;;13.15;3.28;;;7.30;99.90;;;;;;5052914;28;20202;-56
2023/12/22 06:39:09;;;;;;;7.22;1.98;;;7.30;99.90;;;;;;5052242;28;20166;-57
2023/12/22 06:41:35;;;;;;;4.40;1.27;;;7.20;99.90;;;;;;5052946;28;20159;-57
2023/12/22 06:44:00;;;;;;;3.88;1.15;;;7.00;99.90;;;;;;5052986;28;20525;-57
2023/12/22 06:46:26;;;;;;;5.65;2.25;;;7.00;99.90;;;;;;5052894;28;20177;-57
2023/12/22 06:48:53;;;;;;;5.97;1.83;;;7.00;99.90;;;;;;5052918;28;20169;-56
2023/12/22 06:51:26;;;;;;;5.30;1.90;;;7.00;99.90;;;;;;5053265;28;20167;-57
2023/12/22 06:53:53;;;;;;;4.15;1.40;;;6.90;99.90;;;;;;5052277;28;20214;-56
2023/12/22 06:56:24;;;;;;;4.57;1.23;;;6.80;99.90;;;;;;5053113;28;20292;-57
2023/12/22 06:58:51;;;;;;;5.93;1.90;;;6.80;99.90;;;;;;5053365;28;20174;-57
2023/12/22 07:01:31;;;;;;;13.82;2.10;;;4.80;99.90;;;;;;5053064;28;20220;-58
2023/12/22 07:03:59;;;;;;;6.20;2.25;;;6.80;99.90;;;;;;5052898;28;20221;-57
2023/12/22 07:06:27;;;;;;;9.10;2.10;;;6.80;99.90;;;;;;5052806;28;20175;-56
2023/12/22 07:09:11;;;;;;;9.93;2.40;;;6.70;99.90;;;;;;5052764;28;20201;-57
2023/12/22 07:11:40;;;;;;;11.07;2.42;;;6.80;99.90;;;;;;5052408;28;20171;-57
2023/12/22 07:14:06;;;;;;;15.15;2.88;;;6.90;99.90;;;;;;5052427;28;20167;-56
2023/12/22 07:16:32;;;;;;;19.65;2.80;;;6.90;99.90;;;;;;5052180;28;20201;-57
2023/12/22 07:18:58;;;;;;;14.98;3.17;;;7.00;99.90;;;;;;5052357;28;20182;-56
2023/12/22 07:21:24;;;;;;;19.58;3.30;;;7.00;99.90;;;;;;5051961;28;20162;-56
2023/12/22 07:23:49;;;;;;;17.63;4.50;;;7.00;99.90;;;;;;5052168;28;20175;-55
2023/12/22 07:26:15;;;;;;;15.98;3.83;;;7.00;99.90;;;;;;5051733;28;20162;-55
2023/12/22 07:28:40;;;;;;;16.85;3.90;;;7.00;99.90;;;;;;5051736;28;20170;-56
2023/12/22 07:31:06;;;;;;;21.83;3.05;;;7.00;99.90;;;;;;5051999;28;20182;-55
2023/12/22 07:33:31;;;;;;;18.52;4.38;;;7.00;99.90;;;;;;5051981;28;20645;-56
2023/12/22 07:35:57;;;;;;;18.70;4.00;;;7.00;99.90;;;;;;5052238;28;20224;-57
2023/12/22 07:38:23;;;;;;;10.65;3.40;;;7.00;99.90;;;;;;5051862;28;20669;-56
2023/12/22 07:40:49;;;;;;;22.73;4.20;;;7.00;99.90;;;;;;5052286;28;20171;-57
2023/12/22 07:43:15;;;;;;;20.13;3.15;;;7.10;99.90;;;;;;5052078;28;20177;-57
2023/12/22 07:45:41;;;;;;;30.30;4.88;;;7.20;99.90;;;;;;5051886;28;20540;-57
2023/12/22 07:48:07;;;;;;;19.90;4.45;;;7.20;99.90;;;;;;5051770;28;20166;-57
2023/12/22 07:50:32;;;;;;;18.20;4.00;;;7.30;99.90;;;;;;5051066;28;20177;-55
2023/12/22 07:52:58;;;;;;;17.75;3.72;;;7.30;99.90;;;;;;5051345;28;20197;-57
2023/12/22 07:55:24;;;;;;;25.55;5.53;;;7.30;99.90;;;;;;5051298;28;20218;-57
2023/12/22 07:57:50;;;;;;;24.45;4.57;;;7.30;99.90;;;;;;5051978;28;20210;-57
2023/12/22 08:00:19;;;;;;;23.40;4.90;;;9.90;99.90;;;;;;5052171;28;20253;-58
2023/12/22 08:02:44;;;;;;;18.88;4.22;;;7.20;99.90;;;;;;5051516;28;20175;-58
2023/12/22 08:05:10;;;;;;;19.40;4.25;;;7.20;99.90;;;;;;5051535;28;20189;-56
2023/12/22 08:07:36;;;;;;;21.02;4.43;;;7.30;99.90;;;;;;5051440;28;20158;-56
2023/12/22 08:10:03;;;;;;;16.20;3.75;;;7.20;99.90;;;;;;5051462;28;20171;-57
2023/12/22 08:12:29;;;;;;;16.27;4.25;;;7.30;99.90;;;;;;5051467;28;20159;-55
2023/12/22 08:14:54;;;;;;;28.80;6.20;;;7.40;99.90;;;;;;5051670;28;20177;-58
2023/12/22 08:17:20;;;;;;;26.05;5.25;;;7.40;99.90;;;;;;5051943;28;20336;-58
2023/12/22 08:19:46;;;;;;;26.40;5.45;;;8.10;99.90;;;;;;5051647;28;20170;-57
2023/12/22 08:22:14;;;;;;;21.35;4.55;;;7.40;99.90;;;;;;5051279;28;20554;-57
2023/12/22 08:24:40;;;;;;;14.45;3.97;;;7.40;99.90;;;;;;5051207;28;20189;-57
2023/12/22 08:27:08;;;;;;;16.20;4.40;;;7.50;99.90;;;;;;5051476;28;20712;-58
2023/12/22 08:29:34;;;;;;;26.30;4.15;;;7.50;99.90;;;;;;5051197;28;20237;-55
2023/12/22 08:32:01;;;;;;;26.98;4.70;;;7.50;99.90;;;;;;5051223;28;20570;-58
2023/12/22 08:34:27;;;;;;;27.60;3.80;;;7.50;99.90;;;;;;5051233;28;20213;-58
2023/12/22 08:36:52;;;;;;;24.55;5.07;;;7.60;99.90;;;;;;5051066;28;20233;-57
2023/12/22 08:39:18;;;;;;;21.40;3.78;;;7.60;99.90;;;;;;5051555;28;20210;-57
2023/12/22 08:41:45;;;;;;;24.40;5.82;;;7.60;99.90;;;;;;5051117;28;20167;-56
2023/12/22 08:44:10;;;;;;;23.15;5.20;;;7.70;99.90;;;;;;5051064;28;20183;-56
2023/12/22 08:46:36;;;;;;;23.48;4.75;;;7.70;99.90;;;;;;5051065;28;20189;-58
2023/12/22 08:49:02;;;;;;;32.35;4.50;;;7.70;99.90;;;;;;5051051;28;20167;-56
2023/12/22 08:51:28;;;;;;;23.10;5.22;;;7.70;99.90;;;;;;5050693;28;20174;-56
2023/12/22 08:53:55;;;;;;;16.75;4.25;;;7.70;99.90;;;;;;5050892;28;20301;-57
2023/12/22 08:56:24;;;;;;;27.30;5.22;;;7.70;99.90;;;;;;5051393;28;20170;-56
2023/12/22 08:58:54;;;;;;;18.00;4.03;;;7.70;99.90;;;;;;5051194;28;20174;-56
2023/12/22 09:01:21;;;;;;;19.63;3.63;;;7.80;99.90;;;;;;5052083;28;20185;-57
2023/12/22 09:03:48;;;;;;;19.40;5.65;;;7.80;99.90;;;;;;5055180;28;20163;-54
2023/12/22 09:06:21;;;;;;;22.33;4.70;;;7.80;99.90;;;;;;5054835;28;20209;-58
2023/12/22 09:08:48;;;;;;;21.95;4.90;;;7.80;99.90;;;;;;5055518;28;20166;-58
2023/12/22 09:11:16;;;;;;;26.60;4.45;;;7.80;99.90;;;;;;5054922;28;20167;-56
2023/12/22 09:13:41;;;;;;;33.60;4.75;;;7.80;99.90;;;;;;5054689;28;20163;-58
2023/12/22 09:16:07;;;;;;;26.50;4.40;;;7.90;99.90;;;;;;5054692;28;20170;-58
2023/12/22 09:18:33;;;;;;;20.27;4.25;;;7.90;99.90;;;;;;5054511;28;20203;-57
2023/12/22 09:20:59;;;;;;;24.48;4.32;;;7.90;99.90;;;;;;5054215;28;20225;-55
2023/12/22 09:23:25;;;;;;;34.17;5.63;;;8.00;99.90;;;;;;5054142;28;20227;-55
2023/12/22 09:25:50;;;;;;;15.93;3.80;;;8.00;99.90;;;;;;5054425;28;20162;-55
2023/12/22 09:28:16;;;;;;;13.10;3.90;;;8.00;99.90;;;;;;5054839;28;20242;-57
2023/12/22 09:30:42;;;;;;;19.45;4.75;;;8.00;99.90;;;;;;5054333;28;20242;-57
2023/12/22 09:33:10;;;;;;;15.65;5.00;;;8.00;99.90;;;;;;5054263;28;20198;-57
2023/12/22 09:35:36;;;;;;;16.63;3.90;;;8.10;99.90;;;;;;5054485;28;20171;-57
2023/12/22 09:38:03;;;;;;;16.27;3.75;;;8.10;99.90;;;;;;5054083;28;20204;-57
2023/12/22 09:40:30;;;;;;;22.58;4.43;;;8.10;99.90;;;;;;5054189;28;20191;-58
2023/12/22 09:42:57;;;;;;;17.27;4.03;;;8.20;99.90;;;;;;5054176;28;20684;-57
2023/12/22 09:45:23;;;;;;;18.08;3.95;;;8.20;99.90;;;;;;5054001;28;20229;-57
2023/12/22 09:47:51;;;;;;;16.27;3.28;;;8.20;99.90;;;;;;5054441;28;20243;-57
2023/12/22 09:50:17;;;;;;;16.98;3.45;;;8.30;99.90;;;;;;5054215;28;20549;-56
2023/12/22 09:52:46;;;;;;;11.93;3.30;;;8.30;99.90;;;;;;5053504;28;20170;-57
2023/12/22 09:55:14;;;;;;;10.75;2.70;;;8.30;99.90;;;;;;5053633;28;20272;-57
2023/12/22 09:57:42;;;;;;;13.75;2.72;;;8.30;99.90;;;;;;5053756;28;20666;-57
2023/12/22 10:00:12;;;;;;;13.70;2.67;;;8.30;99.90;;;;;;5053687;28;20189;-57
2023/12/22 10:02:39;;;;;;;8.80;2.58;;;8.30;99.90;;;;;;5053669;28;20220;-55
2023/12/22 10:05:05;;;;;;;4.55;2.35;;;8.30;99.90;;;;;;5053679;28;20257;-57
2023/12/22 10:07:33;;;;;;;9.73;2.80;;;8.30;99.90;;;;;;5053989;28;20258;-57
2023/12/22 10:10:00;;;;;;;8.57;2.30;;;8.30;99.90;;;;;;5053888;28;20171;-55
2023/12/22 10:12:27;;;;;;;8.40;2.10;;;8.30;99.90;;;;;;5053374;28;20253;-55
2023/12/22 10:14:54;;;;;;;5.03;2.47;;;8.30;99.90;;;;;;5052849;28;20178;-56
2023/12/22 10:17:19;;;;;;;5.05;1.95;;;8.30;99.90;;;;;;5053831;28;20210;-56
2023/12/22 10:19:45;;;;;;;3.72;1.88;;;9.80;99.90;;;;;;5053491;28;20231;-55
2023/12/22 10:22:11;;;;;;;5.47;2.00;;;8.30;99.90;;;;;;5053497;28;20178;-55
2023/12/22 10:24:47;;;;;;;7.45;2.08;;;8.30;99.90;;;;;;5053330;28;20167;-56
2023/12/22 10:27:15;;;;;;;6.25;2.03;;;8.30;99.90;;;;;;5053357;28;20201;-57
2023/12/22 10:29:40;;;;;;;5.03;2.33;;;8.30;99.90;;;;;;5053064;28;20177;-54
2023/12/22 10:32:08;;;;;;;6.47;2.58;;;8.30;99.90;;;;;;5053415;28;20167;-54
2023/12/22 10:34:34;;;;;;;8.20;2.72;;;8.40;99.90;;;;;;5053091;28;20182;-54
2023/12/22 10:37:00;;;;;;;8.45;2.70;;;8.40;99.90;;;;;;5053250;28;20210;-55
2023/12/22 10:39:31;;;;;;;6.18;2.67;;;8.40;99.90;;;;;;5053107;28;20163;-55
2023/12/22 10:41:58;;;;;;;2.92;2.17;;;8.40;99.90;;;;;;5053007;28;20162;-55
2023/12/22 10:44:25;;;;;;;5.88;2.30;;;8.40;99.90;;;;;;5052982;28;20213;-55
2023/12/22 10:46:51;;;;;;;4.32;2.55;;;8.40;99.90;;;;;;5053215;28;20170;-56
2023/12/22 10:49:16;;;;;;;4.18;2.65;;;8.30;99.90;;;;;;5053013;28;20707;-55
2023/12/22 10:51:42;;;;;;;7.00;4.07;;;8.40;99.90;;;;;;5052665;28;20167;-56
2023/12/22 10:54:08;;;;;;;4.43;2.45;;;8.40;99.90;;;;;;5052616;28;20272;-55
2023/12/22 10:56:34;;;;;;;3.83;1.85;;;8.50;99.90;;;;;;5052773;28;20685;-55
2023/12/22 10:59:01;;;;;;;5.90;2.55;;;8.50;99.90;;;;;;5052822;28;20277;-58
2023/12/22 11:01:33;;;;;;;5.10;2.00;;;8.60;99.90;;;;;;5052931;28;20167;-55
2023/12/22 11:04:03;;;;;;;5.25;3.47;;;8.60;99.90;;;;;;5051334;28;20193;-58
2023/12/22 11:06:35;;;;;;;2.85;1.90;;;8.60;99.90;;;;;;5052704;28;20167;-56
2023/12/22 11:09:09;;;;;;;5.32;2.70;;;8.70;99.90;;;;;;5052328;28;20197;-55
2023/12/22 11:11:36;;;;;;;2.15;1.65;;;8.70;99.90;;;;;;5052592;28;20166;-55
2023/12/22 11:14:02;;;;;;;4.72;1.70;;;8.70;99.90;;;;;;5052417;28;20170;-53
2023/12/22 11:16:29;;;;;;;4.57;2.63;;;8.70;99.90;;;;;;5052140;28;20171;-55
2023/12/22 11:18:56;;;;;;;6.18;2.40;;;8.70;99.90;;;;;;5052407;28;20216;-54
2023/12/22 11:21:22;;;;;;;5.13;2.20;;;8.80;99.90;;;;;;5052149;28;20205;-54
2023/12/22 11:23:50;;;;;;;3.50;2.42;;;8.80;99.90;;;;;;5052607;28;20536;-54
2023/12/22 11:26:17;;;;;;;6.15;1.83;;;8.80;99.90;;;;;;5052775;28;20170;-55
2023/12/22 11:28:45;;;;;;;4.07;2.70;;;8.80;99.90;;;;;;5052413;28;20257;-55
2023/12/22 11:31:12;;;;;;;2.72;2.20;;;8.90;99.90;;;;;;5050654;28;20511;-55
2023/12/22 11:33:42;;;;;;;4.25;2.15;;;8.90;99.90;;;;;;5052065;28;20179;-55
2023/12/22 11:36:09;;;;;;;2.90;2.35;;;9.00;99.90;;;;;;5051678;28;20170;-53
2023/12/22 11:38:35;;;;;;;5.22;2.63;;;9.10;99.90;;;;;;5051552;28;20206;-53
2023/12/22 11:41:02;;;;;;;2.85;2.15;;;9.10;99.90;;;;;;5051892;28;20167;-54
2023/12/22 11:43:28;;;;;;;4.65;1.60;;;9.10;99.90;;;;;;5033752;28;20167;-54
2023/12/22 11:45:54;;;;;;;10.98;2.03;;;9.20;99.90;;;;;;5051445;28;20174;-53
2023/12/22 11:48:20;;;;;;;3.58;1.92;;;9.20;99.90;;;;;;5051508;28;20167;-53
2023/12/22 11:50:46;;;;;;;3.20;1.70;;;9.30;99.90;;;;;;5051498;28;20170;-54
2023/12/22 11:53:24;;;;;;;7.13;2.00;;;9.30;99.90;;;;;;5051278;28;20181;-53
2023/12/22 11:56:00;;;;;;;3.25;1.30;;;9.40;99.90;;;;;;5051653;28;20182;-53
2023/12/22 11:58:41;;;;;;;3.17;1.88;;;9.40;99.90;;;;;;5051181;28;20659;-56
2023/12/22 12:01:12;;;;;;;4.35;1.85;;;9.40;99.90;;;;;;5050254;28;20198;-56
2023/12/22 12:03:47;;;;;;;3.40;1.60;;;9.40;99.90;;;;;;5051246;28;20177;-56
2023/12/22 12:06:13;;;;;;;2.55;1.50;;;9.40;99.90;;;;;;5051066;28;20213;-55
2023/12/22 12:08:39;;;;;;;7.97;3.05;;;9.40;99.90;;;;;;5051223;28;20163;-56
2023/12/22 12:11:06;;;;;;;4.03;1.80;;;9.40;99.90;;;;;;5051283;28;20171;-55
2023/12/22 12:13:32;;;;;;;3.70;2.50;;;9.40;99.90;;;;;;5050858;28;20167;-57
2023/12/22 12:16:02;;;;;;;3.55;1.80;;;10.80;99.90;;;;;;5050853;28;20167;-55
2023/12/22 12:18:29;;;;;;;2.92;1.42;;;9.50;99.90;;;;;;5051074;28;20215;-55
2023/12/22 12:20:55;;;;;;;3.70;1.65;;;9.50;99.90;;;;;;5050482;28;20166;-56
2023/12/22 12:23:23;;;;;;;2.35;1.27;;;9.60;99.90;;;;;;5050462;28;20185;-56
2023/12/22 12:25:49;;;;;;;3.42;1.65;;;9.60;99.90;;;;;;5051535;28;20181;-56
2023/12/22 12:28:18;;;;;;;7.60;2.10;;;9.60;99.90;;;;;;5050818;28;20166;-55
2023/12/22 12:30:45;;;;;;;4.45;1.58;;;9.60;99.90;;;;;;5050577;28;20547;-55
2023/12/22 12:33:13;;;;;;;4.68;1.73;;;9.60;99.90;;;;;;5051182;28;20174;-56
2023/12/22 12:35:39;;;;;;;6.07;1.45;;;9.70;99.90;;;;;;5050963;28;20158;-56
2023/12/22 12:38:05;;;;;;;3.13;1.52;;;9.70;99.90;;;;;;5054569;28;20546;-56
2023/12/22 12:40:35;;;;;;;3.25;1.42;;;9.80;99.90;;;;;;5054827;28;20193;-56
2023/12/22 12:43:02;;;;;;;5.18;1.60;;;9.80;99.90;;;;;;5054984;28;20174;-55
2023/12/22 12:45:27;;;;;;;7.20;2.13;;;9.80;99.90;;;;;;5054981;28;20526;-56
2023/12/22 12:48:03;;;;;;;6.75;1.25;;;9.80;99.90;;;;;;5053502;28;20174;-56
2023/12/22 12:50:31;;;;;;;4.85;1.85;;;9.80;99.90;;;;;;5054374;28;20232;-56